sensor_id;sensor_type;location;lat;lon;timestamp;P1;durP1;ratioP1;P2;durP2;ratioP2
34960;SDS011;30789;52.030;7.110;2023-06-14T00:02:10;6.25;;;2.17;;
34960;SDS011;30789;52.030;7.110;2023-06-14T00:04:38;5.57;;;2.45;;
34960;SDS011;30789;52.030;7.110;2023-06-14T00:07:06;4.30;;;2.22;;
34960;SDS011;30789;52.030;7.110;2023-06-14T00:09:34;4.57;;;2.30;;
34960;SDS011;30789;52.030;7.110;2023-06-14T00:12:00;3.75;;;2.05;;
34960;SDS011;30789;52.030;7.110;2023-06-14T00:14:27;7.03;;;2.35;;
34960;SDS011;30789;52.030;7.110;2023-06-14T00:16:53;6.15;;;2.53;;
34960;SDS011;30789;52.030;7.110;2023-06-14T00:19:23;3.17;;;2.58;;
34960;SDS011;30789;52.030;7.110;2023-06-14T00:21:51;2.90;;;1.83;;
34960;SDS011;30789;52.030;7.110;2023-06-14T00:24:17;3.25;;;2.20;;
34960;SDS011;30789;52.030;7.110;2023-06-14T00:26:44;4.30;;;2.10;;
34960;SDS011;30789;52.030;7.110;2023-06-14T00:29:10;6.47;;;2.50;;
34960;SDS011;30789;52.030;7.110;2023-06-14T00:31:37;4.70;;;2.38;;
34960;SDS011;30789;52.030;7.110;2023-06-14T00:34:03;3.90;;;2.38;;
34960;SDS011;30789;52.030;7.110;2023-06-14T00:36:30;5.38;;;2.35;;
34960;SDS011;30789;52.030;7.110;2023-06-14T00:38:58;3.28;;;2.50;;
34960;SDS011;30789;52.030;7.110;2023-06-14T00:41:24;4.07;;;2.58;;
34960;SDS011;30789;52.030;7.110;2023-06-14T00:43:52;6.43;;;2.17;;
34960;SDS011;30789;52.030;7.110;2023-06-14T00:46:20;4.25;;;2.55;;
34960;SDS011;30789;52.030;7.110;2023-06-14T00:48:47;3.83;;;2.13;;
34960;SDS011;30789;52.030;7.110;2023-06-14T00:51:14;4.32;;;2.03;;
34960;SDS011;30789;52.030;7.110;2023-06-14T00:53:40;4.72;;;2.17;;
34960;SDS011;30789;52.030;7.110;2023-06-14T00:56:12;5.30;;;2.50;;
34960;SDS011;30789;52.030;7.110;2023-06-14T00:58:39;4.82;;;1.88;;
34960;SDS011;30789;52.030;7.110;2023-06-14T01:01:06;3.97;;;2.00;;
34960;SDS011;30789;52.030;7.110;2023-06-14T01:03:33;2.97;;;2.22;;
34960;SDS011;30789;52.030;7.110;2023-06-14T01:06:03;2.05;;;1.83;;
34960;SDS011;30789;52.030;7.110;2023-06-14T01:08:40;3.80;;;2.40;;
34960;SDS011;30789;52.030;7.110;2023-06-14T01:11:18;5.60;;;2.20;;
34960;SDS011;30789;52.030;7.110;2023-06-14T01:13:48;5.65;;;2.40;;
34960;SDS011;30789;52.030;7.110;2023-06-14T01:16:16;4.05;;;2.10;;
34960;SDS011;30789;52.030;7.110;2023-06-14T01:18:43;2.30;;;2.10;;
34960;SDS011;30789;52.030;7.110;2023-06-14T01:21:19;7.90;;;2.28;;
34960;SDS011;30789;52.030;7.110;2023-06-14T01:23:48;8.77;;;2.30;;
34960;SDS011;30789;52.030;7.110;2023-06-14T01:26:17;4.88;;;2.08;;
34960;SDS011;30789;52.030;7.110;2023-06-14T01:28:44;5.38;;;2.03;;
34960;SDS011;30789;52.030;7.110;2023-06-14T01:31:13;3.47;;;2.22;;
34960;SDS011;30789;52.030;7.110;2023-06-14T01:33:43;3.40;;;2.05;;
34960;SDS011;30789;52.030;7.110;2023-06-14T01:36:11;2.15;;;1.83;;
34960;SDS011;30789;52.030;7.110;2023-06-14T01:38:38;2.80;;;1.65;;
34960;SDS011;30789;52.030;7.110;2023-06-14T01:41:07;3.47;;;2.20;;
34960;SDS011;30789;52.030;7.110;2023-06-14T01:43:34;2.60;;;1.90;;
34960;SDS011;30789;52.030;7.110;2023-06-14T01:46:01;3.20;;;2.20;;
34960;SDS011;30789;52.030;7.110;2023-06-14T01:48:30;5.32;;;1.73;;
34960;SDS011;30789;52.030;7.110;2023-06-14T01:50:56;2.13;;;1.80;;
34960;SDS011;30789;52.030;7.110;2023-06-14T01:53:23;2.83;;;2.10;;
34960;SDS011;30789;52.030;7.110;2023-06-14T01:55:49;4.07;;;2.30;;
34960;SDS011;30789;52.030;7.110;2023-06-14T01:58:20;3.35;;;1.95;;
34960;SDS011;30789;52.030;7.110;2023-06-14T02:00:46;2.55;;;1.83;;
34960;SDS011;30789;52.030;7.110;2023-06-14T02:03:13;2.78;;;2.05;;
34960;SDS011;30789;52.030;7.110;2023-06-14T02:05:40;2.92;;;1.83;;
34960;SDS011;30789;52.030;7.110;2023-06-14T02:08:06;6.20;;;2.00;;
34960;SDS011;30789;52.030;7.110;2023-06-14T02:10:33;5.20;;;1.88;;
34960;SDS011;30789;52.030;7.110;2023-06-14T02:13:00;5.30;;;2.22;;
34960;SDS011;30789;52.030;7.110;2023-06-14T02:15:28;5.78;;;1.80;;
34960;SDS011;30789;52.030;7.110;2023-06-14T02:17:58;3.70;;;1.98;;
34960;SDS011;30789;52.030;7.110;2023-06-14T02:20:25;4.32;;;2.20;;
34960;SDS011;30789;52.030;7.110;2023-06-14T02:22:52;4.80;;;2.17;;
34960;SDS011;30789;52.030;7.110;2023-06-14T02:25:18;4.05;;;1.80;;
34960;SDS011;30789;52.030;7.110;2023-06-14T02:27:45;2.53;;;1.80;;
34960;SDS011;30789;52.030;7.110;2023-06-14T02:30:12;2.47;;;1.80;;
34960;SDS011;30789;52.030;7.110;2023-06-14T02:32:41;2.45;;;1.83;;
34960;SDS011;30789;52.030;7.110;2023-06-14T02:35:08;2.38;;;1.98;;
34960;SDS011;30789;52.030;7.110;2023-06-14T02:37:35;2.63;;;2.00;;
34960;SDS011;30789;52.030;7.110;2023-06-14T02:40:02;5.15;;;2.38;;
34960;SDS011;30789;52.030;7.110;2023-06-14T02:42:29;4.32;;;2.30;;
34960;SDS011;30789;52.030;7.110;2023-06-14T02:44:56;3.90;;;2.03;;
34960;SDS011;30789;52.030;7.110;2023-06-14T02:47:22;7.38;;;2.08;;
34960;SDS011;30789;52.030;7.110;2023-06-14T02:49:51;2.53;;;1.60;;
34960;SDS011;30789;52.030;7.110;2023-06-14T02:52:17;3.80;;;1.98;;
34960;SDS011;30789;52.030;7.110;2023-06-14T02:54:45;6.53;;;2.20;;
34960;SDS011;30789;52.030;7.110;2023-06-14T02:57:12;5.10;;;1.85;;
34960;SDS011;30789;52.030;7.110;2023-06-14T02:59:38;3.15;;;2.10;;
34960;SDS011;30789;52.030;7.110;2023-06-14T03:02:05;4.07;;;1.95;;
34960;SDS011;30789;52.030;7.110;2023-06-14T03:04:32;3.17;;;2.13;;
34960;SDS011;30789;52.030;7.110;2023-06-14T03:07:03;2.65;;;2.35;;
34960;SDS011;30789;52.030;7.110;2023-06-14T03:09:34;4.05;;;2.10;;
34960;SDS011;30789;52.030;7.110;2023-06-14T03:12:02;2.85;;;2.15;;
34960;SDS011;30789;52.030;7.110;2023-06-14T03:14:28;3.65;;;1.90;;
34960;SDS011;30789;52.030;7.110;2023-06-14T03:16:55;4.30;;;2.05;;
34960;SDS011;30789;52.030;7.110;2023-06-14T03:19:22;2.78;;;1.98;;
34960;SDS011;30789;52.030;7.110;2023-06-14T03:21:48;2.22;;;1.67;;
34960;SDS011;30789;52.030;7.110;2023-06-14T03:24:16;5.28;;;2.40;;
34960;SDS011;30789;52.030;7.110;2023-06-14T03:26:43;2.47;;;1.88;;
34960;SDS011;30789;52.030;7.110;2023-06-14T03:29:09;4.85;;;2.08;;
34960;SDS011;30789;52.030;7.110;2023-06-14T03:31:39;3.63;;;2.53;;
34960;SDS011;30789;52.030;7.110;2023-06-14T03:34:07;3.50;;;1.80;;
34960;SDS011;30789;52.030;7.110;2023-06-14T03:36:33;4.43;;;1.80;;
34960;SDS011;30789;52.030;7.110;2023-06-14T03:39:00;2.63;;;1.70;;
34960;SDS011;30789;52.030;7.110;2023-06-14T03:41:28;3.97;;;2.03;;
34960;SDS011;30789;52.030;7.110;2023-06-14T03:43:54;5.22;;;2.25;;
34960;SDS011;30789;52.030;7.110;2023-06-14T03:46:21;5.38;;;2.33;;
34960;SDS011;30789;52.030;7.110;2023-06-14T03:48:47;3.50;;;1.90;;
34960;SDS011;30789;52.030;7.110;2023-06-14T03:51:14;4.03;;;1.95;;
34960;SDS011;30789;52.030;7.110;2023-06-14T03:53:40;6.88;;;2.42;;
34960;SDS011;30789;52.030;7.110;2023-06-14T03:56:07;4.38;;;2.00;;
34960;SDS011;30789;52.030;7.110;2023-06-14T03:58:35;4.32;;;2.10;;
34960;SDS011;30789;52.030;7.110;2023-06-14T04:01:01;7.32;;;2.22;;
34960;SDS011;30789;52.030;7.110;2023-06-14T04:03:28;4.03;;;1.98;;
34960;SDS011;30789;52.030;7.110;2023-06-14T04:05:54;3.15;;;1.77;;
34960;SDS011;30789;52.030;7.110;2023-06-14T04:08:21;3.83;;;1.88;;
34960;SDS011;30789;52.030;7.110;2023-06-14T04:10:49;3.47;;;2.10;;
34960;SDS011;30789;52.030;7.110;2023-06-14T04:13:16;6.18;;;2.25;;
34960;SDS011;30789;52.030;7.110;2023-06-14T04:15:44;2.92;;;2.03;;
34960;SDS011;30789;52.030;7.110;2023-06-14T04:18:11;3.67;;;1.83;;
34960;SDS011;30789;52.030;7.110;2023-06-14T04:20:38;4.43;;;2.47;;
34960;SDS011;30789;52.030;7.110;2023-06-14T04:23:11;4.65;;;2.10;;
34960;SDS011;30789;52.030;7.110;2023-06-14T04:25:39;3.85;;;2.20;;
34960;SDS011;30789;52.030;7.110;2023-06-14T04:28:10;2.75;;;1.92;;
34960;SDS011;30789;52.030;7.110;2023-06-14T04:30:37;2.88;;;2.08;;
34960;SDS011;30789;52.030;7.110;2023-06-14T04:33:07;2.97;;;2.05;;
34960;SDS011;30789;52.030;7.110;2023-06-14T04:35:34;2.60;;;1.88;;
34960;SDS011;30789;52.030;7.110;2023-06-14T04:38:02;3.10;;;2.17;;
34960;SDS011;30789;52.030;7.110;2023-06-14T04:40:30;4.88;;;2.40;;
34960;SDS011;30789;52.030;7.110;2023-06-14T04:42:57;2.22;;;1.77;;
34960;SDS011;30789;52.030;7.110;2023-06-14T04:45:23;3.30;;;2.03;;
34960;SDS011;30789;52.030;7.110;2023-06-14T04:47:56;4.38;;;2.10;;
34960;SDS011;30789;52.030;7.110;2023-06-14T04:50:25;4.60;;;2.25;;
34960;SDS011;30789;52.030;7.110;2023-06-14T04:52:52;2.55;;;2.10;;
34960;SDS011;30789;52.030;7.110;2023-06-14T04:55:19;6.25;;;2.60;;
34960;SDS011;30789;52.030;7.110;2023-06-14T04:57:46;5.75;;;2.47;;
34960;SDS011;30789;52.030;7.110;2023-06-14T05:00:12;6.18;;;2.45;;
34960;SDS011;30789;52.030;7.110;2023-06-14T05:02:39;5.47;;;2.35;;
34960;SDS011;30789;52.030;7.110;2023-06-14T05:05:06;2.85;;;2.17;;
34960;SDS011;30789;52.030;7.110;2023-06-14T05:07:35;3.22;;;2.22;;
34960;SDS011;30789;52.030;7.110;2023-06-14T05:10:02;2.80;;;2.03;;
34960;SDS011;30789;52.030;7.110;2023-06-14T05:12:28;4.90;;;2.00;;
34960;SDS011;30789;52.030;7.110;2023-06-14T05:14:55;3.00;;;2.30;;
34960;SDS011;30789;52.030;7.110;2023-06-14T05:17:23;2.92;;;1.98;;
34960;SDS011;30789;52.030;7.110;2023-06-14T05:19:52;3.47;;;2.30;;
34960;SDS011;30789;52.030;7.110;2023-06-14T05:22:20;6.20;;;2.25;;
34960;SDS011;30789;52.030;7.110;2023-06-14T05:24:48;2.67;;;2.05;;
34960;SDS011;30789;52.030;7.110;2023-06-14T05:27:16;5.00;;;1.85;;
34960;SDS011;30789;52.030;7.110;2023-06-14T05:29:42;3.42;;;1.90;;
34960;SDS011;30789;52.030;7.110;2023-06-14T05:32:09;7.32;;;2.60;;
34960;SDS011;30789;52.030;7.110;2023-06-14T05:34:35;6.88;;;2.42;;
34960;SDS011;30789;52.030;7.110;2023-06-14T05:37:01;2.25;;;1.92;;
34960;SDS011;30789;52.030;7.110;2023-06-14T05:39:29;2.45;;;1.80;;
34960;SDS011;30789;52.030;7.110;2023-06-14T05:41:56;2.97;;;1.90;;
34960;SDS011;30789;52.030;7.110;2023-06-14T05:44:23;4.00;;;2.15;;
34960;SDS011;30789;52.030;7.110;2023-06-14T05:46:49;3.30;;;1.95;;
34960;SDS011;30789;52.030;7.110;2023-06-14T05:49:16;2.75;;;1.70;;
34960;SDS011;30789;52.030;7.110;2023-06-14T05:51:42;3.50;;;1.98;;
34960;SDS011;30789;52.030;7.110;2023-06-14T05:54:09;3.67;;;2.13;;
34960;SDS011;30789;52.030;7.110;2023-06-14T05:56:35;4.63;;;2.10;;
34960;SDS011;30789;52.030;7.110;2023-06-14T05:59:03;4.07;;;1.92;;
34960;SDS011;30789;52.030;7.110;2023-06-14T06:01:30;4.53;;;2.13;;
34960;SDS011;30789;52.030;7.110;2023-06-14T06:03:58;3.55;;;1.80;;
34960;SDS011;30789;52.030;7.110;2023-06-14T06:06:25;4.35;;;2.10;;
34960;SDS011;30789;52.030;7.110;2023-06-14T06:08:51;4.35;;;2.58;;
34960;SDS011;30789;52.030;7.110;2023-06-14T06:11:18;4.22;;;1.98;;
34960;SDS011;30789;52.030;7.110;2023-06-14T06:13:45;5.47;;;2.10;;
34960;SDS011;30789;52.030;7.110;2023-06-14T06:16:13;3.63;;;1.80;;
34960;SDS011;30789;52.030;7.110;2023-06-14T06:18:39;4.00;;;1.80;;
34960;SDS011;30789;52.030;7.110;2023-06-14T06:21:06;4.28;;;1.80;;
34960;SDS011;30789;52.030;7.110;2023-06-14T06:23:32;2.20;;;1.40;;
34960;SDS011;30789;52.030;7.110;2023-06-14T06:25:59;3.08;;;1.90;;
34960;SDS011;30789;52.030;7.110;2023-06-14T06:28:25;3.22;;;1.77;;
34960;SDS011;30789;52.030;7.110;2023-06-14T06:30:52;1.98;;;1.67;;
34960;SDS011;30789;52.030;7.110;2023-06-14T06:33:20;3.10;;;1.75;;
34960;SDS011;30789;52.030;7.110;2023-06-14T06:35:46;1.85;;;1.67;;
34960;SDS011;30789;52.030;7.110;2023-06-14T06:38:12;2.85;;;1.90;;
34960;SDS011;30789;52.030;7.110;2023-06-14T06:40:39;2.15;;;1.42;;
34960;SDS011;30789;52.030;7.110;2023-06-14T06:43:06;3.33;;;1.58;;
34960;SDS011;30789;52.030;7.110;2023-06-14T06:45:32;2.00;;;1.52;;
34960;SDS011;30789;52.030;7.110;2023-06-14T06:47:59;4.55;;;1.75;;
34960;SDS011;30789;52.030;7.110;2023-06-14T06:50:26;2.33;;;1.52;;
34960;SDS011;30789;52.030;7.110;2023-06-14T06:52:53;2.45;;;1.20;;
34960;SDS011;30789;52.030;7.110;2023-06-14T06:55:20;2.92;;;1.40;;
34960;SDS011;30789;52.030;7.110;2023-06-14T06:57:46;3.75;;;1.70;;
34960;SDS011;30789;52.030;7.110;2023-06-14T07:00:15;2.05;;;1.33;;
34960;SDS011;30789;52.030;7.110;2023-06-14T07:02:42;1.92;;;1.50;;
34960;SDS011;30789;52.030;7.110;2023-06-14T07:05:09;1.80;;;1.50;;
34960;SDS011;30789;52.030;7.110;2023-06-14T07:07:37;2.78;;;1.65;;
34960;SDS011;30789;52.030;7.110;2023-06-14T07:10:04;2.53;;;1.02;;
34960;SDS011;30789;52.030;7.110;2023-06-14T07:12:31;2.85;;;1.20;;
34960;SDS011;30789;52.030;7.110;2023-06-14T07:14:58;3.63;;;1.65;;
34960;SDS011;30789;52.030;7.110;2023-06-14T07:17:25;5.00;;;1.02;;
34960;SDS011;30789;52.030;7.110;2023-06-14T07:19:52;2.30;;;1.05;;
34960;SDS011;30789;52.030;7.110;2023-06-14T07:22:18;2.38;;;1.20;;
34960;SDS011;30789;52.030;7.110;2023-06-14T07:24:46;4.03;;;1.15;;
34960;SDS011;30789;52.030;7.110;2023-06-14T07:27:13;5.25;;;1.90;;
34960;SDS011;30789;52.030;7.110;2023-06-14T07:29:39;3.10;;;1.33;;
34960;SDS011;30789;52.030;7.110;2023-06-14T07:32:06;1.77;;;1.10;;
34960;SDS011;30789;52.030;7.110;2023-06-14T07:34:33;2.85;;;1.15;;
34960;SDS011;30789;52.030;7.110;2023-06-14T07:37:00;4.93;;;1.25;;
34960;SDS011;30789;52.030;7.110;2023-06-14T07:39:27;1.90;;;1.23;;
34960;SDS011;30789;52.030;7.110;2023-06-14T07:41:55;4.65;;;1.15;;
34960;SDS011;30789;52.030;7.110;2023-06-14T07:44:21;3.70;;;1.20;;
34960;SDS011;30789;52.030;7.110;2023-06-14T07:46:48;1.75;;;1.20;;
34960;SDS011;30789;52.030;7.110;2023-06-14T07:49:15;2.15;;;1.10;;
34960;SDS011;30789;52.030;7.110;2023-06-14T07:51:41;0.73;;;0.70;;
34960;SDS011;30789;52.030;7.110;2023-06-14T07:54:09;1.70;;;1.00;;
34960;SDS011;30789;52.030;7.110;2023-06-14T07:56:39;3.78;;;1.02;;
34960;SDS011;30789;52.030;7.110;2023-06-14T07:59:06;2.22;;;1.10;;
34960;SDS011;30789;52.030;7.110;2023-06-14T08:01:33;1.35;;;0.95;;
34960;SDS011;30789;52.030;7.110;2023-06-14T08:04:01;2.38;;;1.48;;
34960;SDS011;30789;52.030;7.110;2023-06-14T08:06:27;1.50;;;1.30;;
34960;SDS011;30789;52.030;7.110;2023-06-14T08:08:54;1.85;;;0.85;;
34960;SDS011;30789;52.030;7.110;2023-06-14T08:11:20;4.55;;;1.40;;
34960;SDS011;30789;52.030;7.110;2023-06-14T08:13:49;1.08;;;0.93;;
34960;SDS011;30789;52.030;7.110;2023-06-14T08:16:17;1.90;;;1.10;;
34960;SDS011;30789;52.030;7.110;2023-06-14T08:18:43;1.48;;;1.10;;
34960;SDS011;30789;52.030;7.110;2023-06-14T08:21:10;2.63;;;1.00;;
34960;SDS011;30789;52.030;7.110;2023-06-14T08:23:38;3.03;;;0.93;;
34960;SDS011;30789;52.030;7.110;2023-06-14T08:26:04;1.83;;;1.05;;
34960;SDS011;30789;52.030;7.110;2023-06-14T08:28:31;5.82;;;1.00;;
34960;SDS011;30789;52.030;7.110;2023-06-14T08:30:57;1.00;;;0.90;;
34960;SDS011;30789;52.030;7.110;2023-06-14T08:33:25;1.95;;;0.90;;
34960;SDS011;30789;52.030;7.110;2023-06-14T08:35:52;1.75;;;0.90;;
34960;SDS011;30789;52.030;7.110;2023-06-14T08:38:18;1.35;;;1.17;;
34960;SDS011;30789;52.030;7.110;2023-06-14T08:40:45;2.75;;;1.20;;
34960;SDS011;30789;52.030;7.110;2023-06-14T08:43:16;1.25;;;1.00;;
34960;SDS011;30789;52.030;7.110;2023-06-14T08:45:42;3.20;;;1.13;;
34960;SDS011;30789;52.030;7.110;2023-06-14T08:48:10;5.55;;;1.10;;
34960;SDS011;30789;52.030;7.110;2023-06-14T08:50:38;2.58;;;1.00;;
34960;SDS011;30789;52.030;7.110;2023-06-14T08:53:06;1.27;;;1.17;;
34960;SDS011;30789;52.030;7.110;2023-06-14T08:55:35;3.42;;;1.20;;
34960;SDS011;30789;52.030;7.110;2023-06-14T08:58:03;5.20;;;1.38;;
34960;SDS011;30789;52.030;7.110;2023-06-14T09:00:30;2.60;;;1.00;;
34960;SDS011;30789;52.030;7.110;2023-06-14T09:02:57;5.72;;;1.13;;
34960;SDS011;30789;52.030;7.110;2023-06-14T09:05:24;5.18;;;1.02;;
34960;SDS011;30789;52.030;7.110;2023-06-14T09:07:53;1.80;;;1.30;;
34960;SDS011;30789;52.030;7.110;2023-06-14T09:10:21;4.50;;;1.50;;
34960;SDS011;30789;52.030;7.110;2023-06-14T09:12:48;1.90;;;1.10;;
34960;SDS011;30789;52.030;7.110;2023-06-14T09:15:14;1.67;;;1.35;;
34960;SDS011;30789;52.030;7.110;2023-06-14T09:17:42;3.67;;;1.30;;
34960;SDS011;30789;52.030;7.110;2023-06-14T09:20:09;3.42;;;1.10;;
34960;SDS011;30789;52.030;7.110;2023-06-14T09:22:38;4.32;;;1.30;;
34960;SDS011;30789;52.030;7.110;2023-06-14T09:25:07;2.25;;;1.00;;
34960;SDS011;30789;52.030;7.110;2023-06-14T09:27:34;2.55;;;0.98;;
34960;SDS011;30789;52.030;7.110;2023-06-14T09:30:01;2.65;;;0.80;;
34960;SDS011;30789;52.030;7.110;2023-06-14T09:32:28;4.65;;;1.60;;
34960;SDS011;30789;52.030;7.110;2023-06-14T09:34:55;5.65;;;1.13;;
34960;SDS011;30789;52.030;7.110;2023-06-14T09:37:28;1.25;;;1.00;;
34960;SDS011;30789;52.030;7.110;2023-06-14T09:39:55;0.90;;;0.80;;
34960;SDS011;30789;52.030;7.110;2023-06-14T09:42:23;1.95;;;0.95;;
34960;SDS011;30789;52.030;7.110;2023-06-14T09:44:51;1.40;;;1.00;;
34960;SDS011;30789;52.030;7.110;2023-06-14T09:47:19;1.50;;;1.13;;
34960;SDS011;30789;52.030;7.110;2023-06-14T09:49:45;1.10;;;1.00;;
34960;SDS011;30789;52.030;7.110;2023-06-14T09:52:13;3.67;;;0.80;;
34960;SDS011;30789;52.030;7.110;2023-06-14T09:54:41;1.83;;;1.20;;
34960;SDS011;30789;52.030;7.110;2023-06-14T09:57:09;2.42;;;1.00;;
34960;SDS011;30789;52.030;7.110;2023-06-14T09:59:40;1.08;;;0.90;;
34960;SDS011;30789;52.030;7.110;2023-06-14T10:02:09;1.15;;;1.05;;
34960;SDS011;30789;52.030;7.110;2023-06-14T10:04:40;1.27;;;1.00;;
34960;SDS011;30789;52.030;7.110;2023-06-14T10:07:13;1.70;;;0.77;;
34960;SDS011;30789;52.030;7.110;2023-06-14T10:09:45;1.30;;;0.80;;
34960;SDS011;30789;52.030;7.110;2023-06-14T10:12:14;4.35;;;0.70;;
34960;SDS011;30789;52.030;7.110;2023-06-14T10:14:47;2.88;;;0.90;;
34960;SDS011;30789;52.030;7.110;2023-06-14T10:17:17;4.82;;;1.00;;
34960;SDS011;30789;52.030;7.110;2023-06-14T10:19:53;2.08;;;1.20;;
34960;SDS011;30789;52.030;7.110;2023-06-14T10:22:26;6.50;;;1.40;;
34960;SDS011;30789;52.030;7.110;2023-06-14T10:24:57;2.30;;;0.80;;
34960;SDS011;30789;52.030;7.110;2023-06-14T10:27:23;2.17;;;0.80;;
34960;SDS011;30789;52.030;7.110;2023-06-14T10:30:04;2.40;;;1.13;;
34960;SDS011;30789;52.030;7.110;2023-06-14T10:32:33;5.25;;;0.80;;
34960;SDS011;30789;52.030;7.110;2023-06-14T10:35:00;3.88;;;1.00;;
34960;SDS011;30789;52.030;7.110;2023-06-14T10:37:30;1.75;;;0.80;;
34960;SDS011;30789;52.030;7.110;2023-06-14T10:39:57;3.75;;;0.63;;
34960;SDS011;30789;52.030;7.110;2023-06-14T10:42:27;2.40;;;0.80;;
34960;SDS011;30789;52.030;7.110;2023-06-14T10:44:56;0.57;;;0.57;;
34960;SDS011;30789;52.030;7.110;2023-06-14T10:47:26;1.63;;;0.90;;
34960;SDS011;30789;52.030;7.110;2023-06-14T10:49:54;1.77;;;0.73;;
34960;SDS011;30789;52.030;7.110;2023-06-14T10:52:23;1.80;;;0.55;;
34960;SDS011;30789;52.030;7.110;2023-06-14T10:57:24;1.65;;;0.80;;
34960;SDS011;30789;52.030;7.110;2023-06-14T10:59:51;3.42;;;0.88;;
34960;SDS011;30789;52.030;7.110;2023-06-14T11:02:23;2.10;;;0.85;;
34960;SDS011;30789;52.030;7.110;2023-06-14T11:05:06;1.35;;;0.77;;
34960;SDS011;30789;52.030;7.110;2023-06-14T11:07:37;1.70;;;0.70;;
34960;SDS011;30789;52.030;7.110;2023-06-14T11:10:16;2.75;;;1.10;;
34960;SDS011;30789;52.030;7.110;2023-06-14T11:12:54;1.30;;;0.73;;
34960;SDS011;30789;52.030;7.110;2023-06-14T11:15:23;0.63;;;0.57;;
34960;SDS011;30789;52.030;7.110;2023-06-14T11:17:55;1.02;;;0.80;;
34960;SDS011;30789;52.030;7.110;2023-06-14T11:20:24;2.72;;;0.77;;
34960;SDS011;30789;52.030;7.110;2023-06-14T11:22:52;3.50;;;0.82;;
34960;SDS011;30789;52.030;7.110;2023-06-14T11:25:19;0.95;;;0.80;;
34960;SDS011;30789;52.030;7.110;2023-06-14T11:27:46;4.30;;;1.05;;
34960;SDS011;30789;52.030;7.110;2023-06-14T11:30:15;3.03;;;0.85;;
34960;SDS011;30789;52.030;7.110;2023-06-14T11:32:42;2.75;;;0.90;;
34960;SDS011;30789;52.030;7.110;2023-06-14T11:35:10;2.42;;;0.60;;
34960;SDS011;30789;52.030;7.110;2023-06-14T11:37:36;1.10;;;0.70;;
34960;SDS011;30789;52.030;7.110;2023-06-14T11:40:04;1.65;;;0.85;;
34960;SDS011;30789;52.030;7.110;2023-06-14T11:42:34;2.67;;;0.88;;
34960;SDS011;30789;52.030;7.110;2023-06-14T11:45:01;1.70;;;0.75;;
34960;SDS011;30789;52.030;7.110;2023-06-14T11:47:31;1.17;;;0.77;;
34960;SDS011;30789;52.030;7.110;2023-06-14T11:49:58;3.13;;;0.98;;
34960;SDS011;30789;52.030;7.110;2023-06-14T11:52:26;1.30;;;0.85;;
34960;SDS011;30789;52.030;7.110;2023-06-14T11:54:53;1.20;;;0.80;;
34960;SDS011;30789;52.030;7.110;2023-06-14T11:57:20;4.18;;;0.80;;
34960;SDS011;30789;52.030;7.110;2023-06-14T11:59:46;2.03;;;0.88;;
34960;SDS011;30789;52.030;7.110;2023-06-14T12:02:13;2.85;;;0.90;;
34960;SDS011;30789;52.030;7.110;2023-06-14T12:04:40;3.97;;;0.80;;
34960;SDS011;30789;52.030;7.110;2023-06-14T12:07:10;7.35;;;0.90;;
34960;SDS011;30789;52.030;7.110;2023-06-14T12:09:41;2.08;;;0.80;;
34960;SDS011;30789;52.030;7.110;2023-06-14T12:12:09;3.00;;;0.95;;
34960;SDS011;30789;52.030;7.110;2023-06-14T12:14:36;3.28;;;0.75;;
34960;SDS011;30789;52.030;7.110;2023-06-14T12:17:06;1.15;;;0.70;;
34960;SDS011;30789;52.030;7.110;2023-06-14T12:19:33;2.28;;;1.27;;
34960;SDS011;30789;52.030;7.110;2023-06-14T12:22:09;2.17;;;1.00;;
34960;SDS011;30789;52.030;7.110;2023-06-14T12:24:36;1.75;;;0.77;;
34960;SDS011;30789;52.030;7.110;2023-06-14T12:27:05;0.90;;;0.70;;
34960;SDS011;30789;52.030;7.110;2023-06-14T12:29:32;4.68;;;1.00;;
34960;SDS011;30789;52.030;7.110;2023-06-14T12:31:58;2.30;;;0.77;;
34960;SDS011;30789;52.030;7.110;2023-06-14T12:34:25;0.85;;;0.70;;
34960;SDS011;30789;52.030;7.110;2023-06-14T12:36:52;3.90;;;0.75;;
34960;SDS011;30789;52.030;7.110;2023-06-14T12:39:19;1.85;;;0.85;;
34960;SDS011;30789;52.030;7.110;2023-06-14T12:41:46;2.55;;;0.88;;
34960;SDS011;30789;52.030;7.110;2023-06-14T12:44:14;2.95;;;0.90;;
34960;SDS011;30789;52.030;7.110;2023-06-14T12:46:41;1.05;;;0.80;;
34960;SDS011;30789;52.030;7.110;2023-06-14T12:49:10;3.25;;;0.93;;
34960;SDS011;30789;52.030;7.110;2023-06-14T12:51:36;2.55;;;0.80;;
34960;SDS011;30789;52.030;7.110;2023-06-14T12:54:03;2.15;;;1.08;;
34960;SDS011;30789;52.030;7.110;2023-06-14T12:56:30;0.90;;;0.80;;
34960;SDS011;30789;52.030;7.110;2023-06-14T12:58:58;2.35;;;0.90;;
34960;SDS011;30789;52.030;7.110;2023-06-14T13:01:26;2.47;;;1.13;;
34960;SDS011;30789;52.030;7.110;2023-06-14T13:03:52;3.33;;;0.90;;
34960;SDS011;30789;52.030;7.110;2023-06-14T13:06:20;2.40;;;0.70;;
34960;SDS011;30789;52.030;7.110;2023-06-14T13:08:47;0.73;;;0.73;;
34960;SDS011;30789;52.030;7.110;2023-06-14T13:11:14;3.60;;;1.08;;
34960;SDS011;30789;52.030;7.110;2023-06-14T13:13:40;0.75;;;0.70;;
34960;SDS011;30789;52.030;7.110;2023-06-14T13:16:07;2.90;;;1.08;;
34960;SDS011;30789;52.030;7.110;2023-06-14T13:18:35;3.22;;;1.10;;
34960;SDS011;30789;52.030;7.110;2023-06-14T13:21:02;1.90;;;1.00;;
34960;SDS011;30789;52.030;7.110;2023-06-14T13:23:28;1.00;;;0.90;;
34960;SDS011;30789;52.030;7.110;2023-06-14T13:25:55;1.02;;;0.68;;
34960;SDS011;30789;52.030;7.110;2023-06-14T13:28:21;0.75;;;0.70;;
34960;SDS011;30789;52.030;7.110;2023-06-14T13:30:48;2.55;;;0.93;;
34960;SDS011;30789;52.030;7.110;2023-06-14T13:33:14;2.85;;;0.73;;
34960;SDS011;30789;52.030;7.110;2023-06-14T13:35:42;3.63;;;0.90;;
34960;SDS011;30789;52.030;7.110;2023-06-14T13:38:09;1.85;;;0.88;;
34960;SDS011;30789;52.030;7.110;2023-06-14T13:40:35;2.83;;;0.75;;
34960;SDS011;30789;52.030;7.110;2023-06-14T13:43:02;0.82;;;0.70;;
34960;SDS011;30789;52.030;7.110;2023-06-14T13:45:29;2.63;;;1.00;;
34960;SDS011;30789;52.030;7.110;2023-06-14T13:47:55;1.08;;;1.00;;
34960;SDS011;30789;52.030;7.110;2023-06-14T13:50:22;2.47;;;0.90;;
34960;SDS011;30789;52.030;7.110;2023-06-14T13:52:50;4.55;;;0.80;;
34960;SDS011;30789;52.030;7.110;2023-06-14T13:55:17;1.50;;;1.00;;
34960;SDS011;30789;52.030;7.110;2023-06-14T13:57:43;1.00;;;0.77;;
34960;SDS011;30789;52.030;7.110;2023-06-14T14:00:11;4.60;;;1.02;;
34960;SDS011;30789;52.030;7.110;2023-06-14T14:02:39;3.20;;;1.00;;
34960;SDS011;30789;52.030;7.110;2023-06-14T14:05:06;4.47;;;1.10;;
34960;SDS011;30789;52.030;7.110;2023-06-14T14:07:33;1.02;;;0.80;;
34960;SDS011;30789;52.030;7.110;2023-06-14T14:10:02;1.13;;;0.95;;
34960;SDS011;30789;52.030;7.110;2023-06-14T14:12:29;3.85;;;0.93;;
34960;SDS011;30789;52.030;7.110;2023-06-14T14:14:56;2.35;;;1.15;;
34960;SDS011;30789;52.030;7.110;2023-06-14T14:17:22;3.50;;;1.20;;
34960;SDS011;30789;52.030;7.110;2023-06-14T14:19:49;1.77;;;0.88;;
34960;SDS011;30789;52.030;7.110;2023-06-14T14:22:15;3.42;;;0.73;;
34960;SDS011;30789;52.030;7.110;2023-06-14T14:24:42;2.28;;;1.00;;
34960;SDS011;30789;52.030;7.110;2023-06-14T14:27:10;2.17;;;0.93;;
34960;SDS011;30789;52.030;7.110;2023-06-14T14:29:36;1.33;;;0.75;;
34960;SDS011;30789;52.030;7.110;2023-06-14T14:32:03;7.28;;;1.20;;
34960;SDS011;30789;52.030;7.110;2023-06-14T14:34:30;2.05;;;1.08;;
34960;SDS011;30789;52.030;7.110;2023-06-14T14:36:57;3.88;;;0.80;;
34960;SDS011;30789;52.030;7.110;2023-06-14T14:39:23;1.95;;;0.88;;
34960;SDS011;30789;52.030;7.110;2023-06-14T14:41:50;4.35;;;1.48;;
34960;SDS011;30789;52.030;7.110;2023-06-14T14:44:18;1.08;;;0.77;;
34960;SDS011;30789;52.030;7.110;2023-06-14T14:46:44;2.78;;;0.98;;
34960;SDS011;30789;52.030;7.110;2023-06-14T14:49:11;3.60;;;1.17;;
34960;SDS011;30789;52.030;7.110;2023-06-14T14:51:37;2.35;;;0.85;;
34960;SDS011;30789;52.030;7.110;2023-06-14T14:54:04;1.40;;;0.90;;